createdAt,value
2022-10-11T00:01:59.397Z,5.18
2022-10-11T00:04:52.749Z,5.47
2022-10-11T00:07:43.016Z,4.50
2022-10-11T00:10:33.889Z,4.85
2022-10-11T00:13:25.029Z,4.32
2022-10-11T00:16:15.558Z,5.45
2022-10-11T00:19:05.466Z,4.90
2022-10-11T00:21:55.743Z,4.72
2022-10-11T00:24:45.887Z,5.30
2022-10-11T00:27:36.390Z,4.78
2022-10-11T00:30:27.077Z,4.95
2022-10-11T00:33:17.254Z,4.93
2022-10-11T00:36:09.063Z,4.30
2022-10-11T00:38:59.442Z,4.72
2022-10-11T00:41:49.888Z,4.70
2022-10-11T00:44:49.019Z,4.68
2022-10-11T00:47:40.844Z,4.20
2022-10-11T00:50:39.014Z,4.53
2022-10-11T00:53:32.065Z,5.20
2022-10-11T00:56:31.396Z,4.85
2022-10-11T00:59:26.347Z,4.90
2022-10-11T01:02:18.249Z,6.25
2022-10-11T01:05:28.697Z,6.07
2022-10-11T01:08:20.896Z,5.60
2022-10-11T01:11:15.570Z,6.93
2022-10-11T01:14:34.135Z,6.07
2022-10-11T01:18:01.039Z,6.95
2022-10-11T01:20:59.982Z,7.30
2022-10-11T01:24:21.888Z,7.63
2022-10-11T01:27:47.599Z,6.60
2022-10-11T01:30:38.618Z,7.20
2022-10-11T01:33:32.106Z,6.85
2022-10-11T01:36:33.637Z,7.07
2022-10-11T01:39:34.062Z,7.93
2022-10-11T01:42:25.719Z,7.85
2022-10-11T01:45:18.710Z,8.32
2022-10-11T01:48:13.810Z,7.93
2022-10-11T01:51:04.030Z,7.68
2022-10-11T01:54:03.052Z,7.60
2022-10-11T01:57:30.534Z,7.50
2022-10-11T02:00:22.477Z,7.85
2022-10-11T02:03:24.541Z,6.88
2022-10-11T02:06:32.439Z,7.10
2022-10-11T02:09:46.942Z,8.02
2022-10-11T02:15:36.601Z,8.95
2022-10-11T02:18:32.236Z,8.52
2022-10-11T02:21:23.709Z,9.13
2022-10-11T02:24:22.298Z,10.95
2022-10-11T02:27:13.298Z,11.50
2022-10-11T02:30:07.434Z,12.68
2022-10-11T02:33:02.580Z,12.57
2022-10-11T02:36:01.388Z,14.57
2022-10-11T02:38:57.758Z,15.90
2022-10-11T02:41:51.103Z,16.60
2022-10-11T02:44:50.789Z,16.00
2022-10-11T02:47:42.648Z,17.00
2022-10-11T02:50:33.080Z,17.17
2022-10-11T02:53:25.464Z,16.60
2022-10-11T02:56:15.315Z,17.65
2022-10-11T02:59:05.097Z,18.67
2022-10-11T03:01:55.020Z,18.67
2022-10-11T03:04:45.488Z,16.45
2022-10-11T03:07:35.781Z,17.88
2022-10-11T03:10:25.831Z,18.80
2022-10-11T03:13:18.267Z,17.83
2022-10-11T03:16:08.941Z,17.70
2022-10-11T03:18:59.312Z,17.83
2022-10-11T03:21:49.257Z,17.27
2022-10-11T03:24:39.209Z,17.77
2022-10-11T03:27:29.353Z,17.25
2022-10-11T03:30:20.087Z,16.17
2022-10-11T03:33:10.155Z,18.23
2022-10-11T03:35:59.927Z,17.38
2022-10-11T03:38:49.822Z,16.75
2022-10-11T03:41:40.021Z,17.17
2022-10-11T03:44:30.289Z,18.15
2022-10-11T03:47:20.396Z,16.80
2022-10-11T03:50:10.612Z,16.33
2022-10-11T03:53:00.827Z,17.05
2022-10-11T03:55:55.576Z,16.98
2022-10-11T03:58:45.724Z,18.02
2022-10-11T04:01:38.040Z,17.00
2022-10-11T04:04:28.293Z,17.13
2022-10-11T04:07:18.205Z,17.17
2022-10-11T04:10:08.880Z,17.40
2022-10-11T04:12:58.820Z,17.67
2022-10-11T04:15:49.216Z,17.20
2022-10-11T04:18:39.183Z,18.35
2022-10-11T04:21:29.370Z,18.08
2022-10-11T04:24:19.281Z,17.17
2022-10-11T04:27:09.409Z,18.35
2022-10-11T04:29:59.505Z,18.98
2022-10-11T04:32:49.747Z,17.13
2022-10-11T04:35:40.356Z,17.77
2022-10-11T04:38:30.416Z,16.95
2022-10-11T04:41:20.279Z,17.13
2022-10-11T04:44:10.245Z,17.05
2022-10-11T04:47:00.521Z,16.13
2022-10-11T04:49:50.811Z,17.13
2022-10-11T04:52:41.078Z,17.08
2022-10-11T04:55:30.935Z,15.27
2022-10-11T04:58:21.189Z,16.42
2022-10-11T05:01:11.246Z,15.77
2022-10-11T05:04:01.445Z,16.55
2022-10-11T05:06:51.872Z,14.48
2022-10-11T05:09:42.506Z,14.95
2022-10-11T05:12:32.645Z,16.55
2022-10-11T05:15:22.702Z,15.55
2022-10-11T05:18:12.606Z,17.45
2022-10-11T05:21:18.582Z,18.23
2022-10-11T05:24:08.459Z,18.60
2022-10-11T05:27:02.408Z,17.85
2022-10-11T05:29:53.650Z,18.25
2022-10-11T05:32:43.713Z,17.50
2022-10-11T05:35:33.452Z,17.55
2022-10-11T05:38:23.456Z,17.48
2022-10-11T05:41:14.984Z,16.95
2022-10-11T05:44:08.176Z,15.93
2022-10-11T05:46:58.925Z,16.63
2022-10-11T05:49:49.163Z,17.83
2022-10-11T05:52:39.403Z,17.60
2022-10-11T05:55:29.413Z,17.75
2022-10-11T05:58:19.789Z,19.13
2022-10-11T06:01:18.868Z,18.25
2022-10-11T06:04:11.712Z,19.02
2022-10-11T06:07:01.998Z,17.35
2022-10-11T06:09:52.336Z,18.45
2022-10-11T06:12:42.622Z,18.10
2022-10-11T06:15:41.505Z,16.75
2022-10-11T06:18:31.774Z,16.50
2022-10-11T06:21:22.878Z,16.45
2022-10-11T06:24:13.186Z,16.50
2022-10-11T06:27:03.926Z,16.27
2022-10-11T06:29:54.072Z,16.25
2022-10-11T06:32:44.540Z,17.08
2022-10-11T06:35:34.725Z,15.73
2022-10-11T06:38:25.064Z,15.43
2022-10-11T06:41:24.986Z,17.27
2022-10-11T06:44:16.697Z,16.35
2022-10-11T06:47:08.106Z,16.17
2022-10-11T06:49:58.801Z,16.65
2022-10-11T06:52:48.738Z,17.13
2022-10-11T06:55:38.536Z,15.75
2022-10-11T06:58:28.796Z,16.58
2022-10-11T07:01:20.483Z,16.20
2022-10-11T07:04:10.642Z,15.65
2022-10-11T07:07:01.110Z,17.40
2022-10-11T07:09:50.989Z,17.38
2022-10-11T07:12:44.710Z,16.90
2022-10-11T07:15:38.321Z,16.17
2022-10-11T07:18:28.735Z,16.75
2022-10-11T07:21:18.694Z,16.77
2022-10-11T07:24:08.943Z,16.73
2022-10-11T07:26:59.156Z,16.52
2022-10-11T07:29:49.600Z,16.02
2022-10-11T07:32:39.772Z,17.60
2022-10-11T07:35:30.116Z,15.57
2022-10-11T07:38:20.419Z,16.25
2022-10-11T07:41:11.008Z,17.15
2022-10-11T07:44:01.135Z,16.23
2022-10-11T07:46:52.266Z,15.95
2022-10-11T07:49:42.377Z,16.50
2022-10-11T07:52:32.337Z,15.60
2022-10-11T07:55:22.384Z,15.50
2022-10-11T07:58:13.111Z,15.88
2022-10-11T08:01:03.491Z,15.57
2022-10-11T08:03:54.183Z,16.23
2022-10-11T08:06:44.551Z,16.85
2022-10-11T08:09:34.552Z,17.98
2022-10-11T08:12:24.665Z,16.33
2022-10-11T08:15:14.703Z,16.00
2022-10-11T08:18:04.751Z,15.95
2022-10-11T08:20:54.766Z,15.70
2022-10-11T08:23:44.896Z,16.05
2022-10-11T08:26:35.668Z,16.00
2022-10-11T08:29:25.586Z,16.13
2022-10-11T08:32:15.583Z,16.77
2022-10-11T08:35:06.213Z,16.95
2022-10-11T08:37:56.502Z,14.48
2022-10-11T08:40:53.281Z,16.60
2022-10-11T08:44:04.618Z,15.35
2022-10-11T08:47:30.542Z,15.55
2022-10-11T08:50:23.257Z,14.70
2022-10-11T08:53:28.706Z,14.48
2022-10-11T08:56:21.021Z,14.25
2022-10-11T08:59:25.987Z,14.40
2022-10-11T09:02:43.654Z,15.13
2022-10-11T09:05:58.695Z,13.55
2022-10-11T09:09:00.904Z,14.02
2022-10-11T09:11:57.224Z,13.48
2022-10-11T09:15:17.701Z,14.23
2022-10-11T09:18:24.888Z,13.55
2022-10-11T09:21:36.237Z,13.27
2022-10-11T09:24:37.558Z,12.55
2022-10-11T09:28:01.159Z,12.85
2022-10-11T09:30:52.501Z,13.25
2022-10-11T09:33:50.937Z,12.00
2022-10-11T09:36:54.181Z,12.20
2022-10-11T09:40:01.016Z,12.80
2022-10-11T09:42:51.296Z,12.57
2022-10-11T09:45:49.441Z,12.57
2022-10-11T09:48:41.946Z,12.35
2022-10-11T09:51:32.734Z,11.60
2022-10-11T09:54:41.151Z,11.77
2022-10-11T09:57:35.874Z,12.45
2022-10-11T10:00:36.652Z,12.20
2022-10-11T10:03:30.302Z,11.88
2022-10-11T10:06:26.202Z,11.68
2022-10-11T10:09:30.430Z,11.52
2022-10-11T10:12:29.083Z,12.00
2022-10-11T10:15:19.746Z,13.35
2022-10-11T10:18:21.219Z,11.13
2022-10-11T10:21:14.631Z,10.93
2022-10-11T10:24:18.173Z,10.98
2022-10-11T10:27:18.104Z,12.05
2022-10-11T10:30:08.546Z,11.85
2022-10-11T10:33:03.501Z,10.52
2022-10-11T10:36:00.782Z,10.63
2022-10-11T10:39:14.819Z,10.52
2022-10-11T10:42:14.043Z,10.60
2022-10-11T10:45:11.178Z,10.45
2022-10-11T10:48:22.259Z,10.32
2022-10-11T10:51:42.880Z,9.75
2022-10-11T10:54:35.805Z,9.68
2022-10-11T10:57:34.357Z,9.00
2022-10-11T11:00:24.642Z,9.63
2022-10-11T11:03:35.489Z,8.98
2022-10-11T11:06:47.934Z,9.50
2022-10-11T11:09:55.462Z,8.50
2022-10-11T11:13:04.341Z,9.18
2022-10-11T11:16:12.517Z,8.65
2022-10-11T11:19:20.611Z,8.32
2022-10-11T11:22:32.687Z,8.90
2022-10-11T11:25:29.728Z,9.15
2022-10-11T11:28:49.948Z,9.05
2022-10-11T11:31:58.398Z,8.25
2022-10-11T11:35:03.240Z,9.13
2022-10-11T11:38:09.327Z,9.65
2022-10-11T11:41:06.372Z,8.70
2022-10-11T11:44:25.014Z,9.13
2022-10-11T11:47:36.993Z,8.48
2022-10-11T11:50:34.619Z,9.00
2022-10-11T11:53:51.743Z,8.70
2022-10-11T11:56:50.177Z,8.65
2022-10-11T11:59:45.764Z,9.70
2022-10-11T12:03:03.560Z,8.07
2022-10-11T12:06:12.324Z,9.40
2022-10-11T12:09:21.091Z,9.48
2022-10-11T12:12:35.337Z,9.05
2022-10-11T12:15:26.376Z,9.05
2022-10-11T12:18:17.339Z,9.07
2022-10-11T12:21:19.875Z,8.88
2022-10-11T12:24:23.684Z,8.50
2022-10-11T12:27:38.224Z,9.13
2022-10-11T12:30:55.433Z,9.13
2022-10-11T12:34:02.385Z,9.20
2022-10-11T12:36:52.409Z,8.73
2022-10-11T12:39:49.075Z,9.35
2022-10-11T12:42:38.909Z,9.57
2022-10-11T12:45:32.673Z,9.13
2022-10-11T12:48:30.134Z,10.18
2022-10-11T12:51:37.380Z,8.98
2022-10-11T12:54:37.419Z,9.00
2022-10-11T12:57:46.315Z,8.40
2022-10-11T13:00:39.934Z,9.23
2022-10-11T13:03:37.278Z,8.60
2022-10-11T13:06:32.442Z,8.43
2022-10-11T13:09:28.746Z,9.25
2022-10-11T13:12:23.349Z,9.07
2022-10-11T13:15:17.000Z,9.02
2022-10-11T13:18:13.960Z,9.20
2022-10-11T13:21:23.035Z,9.77
2022-10-11T13:24:17.209Z,9.43
2022-10-11T13:27:07.924Z,8.63
2022-10-11T13:30:00.774Z,9.38
2022-10-11T13:32:52.166Z,9.40
2022-10-11T13:35:42.453Z,9.30
2022-10-11T13:38:36.474Z,9.88
2022-10-11T13:41:29.463Z,9.55
2022-10-11T13:44:19.816Z,8.95
2022-10-11T13:47:14.368Z,8.55
2022-10-11T13:50:23.221Z,8.35
2022-10-11T13:53:13.303Z,9.68
2022-10-11T13:56:07.358Z,9.98
2022-10-11T14:01:49.417Z,8.95
2022-10-11T14:04:41.291Z,9.02
2022-10-11T14:07:37.316Z,9.20
2022-10-11T14:10:27.807Z,8.77
2022-10-11T14:13:25.404Z,9.40
2022-10-11T14:16:28.831Z,9.40
2022-10-11T14:19:20.492Z,9.63
2022-10-11T14:22:18.492Z,9.23
2022-10-11T14:25:08.812Z,9.27
2022-10-11T14:27:59.277Z,8.77
2022-10-11T14:30:49.629Z,9.48
2022-10-11T14:33:39.407Z,9.75
2022-10-11T14:36:29.320Z,10.18
2022-10-11T14:39:22.399Z,9.80
2022-10-11T14:42:12.366Z,9.80
2022-10-11T14:45:02.629Z,9.93
2022-10-11T14:47:53.528Z,9.95
2022-10-11T14:50:57.480Z,9.98
2022-10-11T14:53:47.384Z,10.13
2022-10-11T14:56:38.028Z,9.50
2022-10-11T14:59:34.096Z,9.15
2022-10-11T15:02:23.995Z,9.68
2022-10-11T15:05:14.048Z,8.82
2022-10-11T15:08:06.388Z,9.15
2022-10-11T15:10:56.551Z,9.35
2022-10-11T15:13:47.381Z,9.25
2022-10-11T15:16:37.570Z,9.23
2022-10-11T15:19:27.419Z,9.40
2022-10-11T15:22:17.395Z,8.38
2022-10-11T15:25:07.952Z,8.48
2022-10-11T15:27:58.247Z,8.40
2022-10-11T15:30:48.493Z,8.45
2022-10-11T15:33:39.740Z,8.75
2022-10-11T15:36:29.756Z,7.70
2022-10-11T15:39:22.848Z,8.70
2022-10-11T15:42:12.714Z,7.55
2022-10-11T15:45:02.704Z,8.10
2022-10-11T15:47:52.901Z,8.02
2022-10-11T15:50:43.021Z,8.02
2022-10-11T15:53:33.341Z,8.10
2022-10-11T15:56:23.358Z,8.15
2022-10-11T15:59:13.419Z,8.40
2022-10-11T16:02:03.608Z,8.43
2022-10-11T16:04:54.165Z,7.97
2022-10-11T16:07:44.182Z,7.78
2022-10-11T16:10:34.605Z,8.82
2022-10-11T16:13:24.643Z,7.97
2022-10-11T16:16:14.779Z,8.45
2022-10-11T16:19:04.881Z,8.98
2022-10-11T16:21:54.941Z,8.27
2022-10-11T16:24:44.888Z,8.60
2022-10-11T16:27:35.627Z,8.00
2022-10-11T16:30:25.992Z,8.77
2022-10-11T16:33:16.056Z,8.35
2022-10-11T16:36:26.452Z,8.80
2022-10-11T16:39:18.334Z,9.52
2022-10-11T16:42:08.538Z,8.65
2022-10-11T16:44:58.621Z,8.95
2022-10-11T16:47:48.999Z,9.27
2022-10-11T16:50:39.797Z,9.93
2022-10-11T16:53:32.669Z,9.25
2022-10-11T16:56:24.937Z,9.25
2022-10-11T16:59:15.416Z,8.90
2022-10-11T17:02:06.251Z,8.88
2022-10-11T17:04:56.401Z,9.57
2022-10-11T17:07:46.401Z,9.25
2022-10-11T17:10:39.635Z,9.27
2022-10-11T17:13:30.111Z,10.60
2022-10-11T17:16:22.160Z,10.40
2022-10-11T17:19:14.606Z,10.30
2022-10-11T17:22:04.536Z,12.10
2022-10-11T17:24:54.452Z,11.70
2022-10-11T17:27:44.567Z,12.00
2022-10-11T17:30:34.766Z,11.55
2022-10-11T17:33:26.791Z,11.32
2022-10-11T17:36:20.541Z,10.93
2022-10-11T17:39:17.460Z,10.60
2022-10-11T17:42:07.557Z,11.82
2022-10-11T17:44:57.745Z,12.38
2022-10-11T17:47:47.673Z,11.70
2022-10-11T17:50:41.155Z,11.30
2022-10-11T17:53:31.255Z,11.15
2022-10-11T17:56:28.791Z,11.27
2022-10-11T17:59:27.382Z,12.10
2022-10-11T18:02:17.618Z,11.70
2022-10-11T18:05:08.354Z,10.63
2022-10-11T18:07:58.527Z,10.98
2022-10-11T18:10:48.951Z,10.73
2022-10-11T18:13:42.353Z,10.45
2022-10-11T18:16:32.833Z,11.93
2022-10-11T18:19:22.792Z,11.35
2022-10-11T18:22:12.802Z,11.27
2022-10-11T18:25:02.754Z,11.23
2022-10-11T18:27:52.920Z,13.10
2022-10-11T18:30:43.964Z,14.00
2022-10-11T18:33:36.746Z,13.52
2022-10-11T18:36:28.952Z,12.65
2022-10-11T18:39:21.275Z,12.52
2022-10-11T18:42:11.145Z,14.23
2022-10-11T18:45:01.006Z,12.82
2022-10-11T18:47:51.201Z,13.30
2022-10-11T18:50:41.038Z,13.15
2022-10-11T18:53:31.888Z,12.40
2022-10-11T18:56:26.638Z,12.82
2022-10-11T18:59:16.918Z,13.20
2022-10-11T19:02:07.294Z,15.15
2022-10-11T19:04:57.439Z,14.45
2022-10-11T19:07:47.534Z,17.00
2022-10-11T19:10:37.452Z,15.60
2022-10-11T19:13:27.197Z,16.30
2022-10-11T19:16:17.308Z,15.82
2022-10-11T19:19:09.322Z,16.52
2022-10-11T19:22:00.793Z,14.98
2022-10-11T19:24:51.121Z,16.35
2022-10-11T19:27:41.203Z,16.00
2022-10-11T19:30:32.075Z,14.60
2022-10-11T19:33:21.883Z,15.35
2022-10-11T19:36:13.870Z,14.90
2022-10-11T19:39:06.023Z,15.77
2022-10-11T19:41:55.968Z,14.98
2022-10-11T19:44:46.449Z,13.77
2022-10-11T19:47:36.613Z,14.27
2022-10-11T19:50:26.725Z,13.73
2022-10-11T19:53:16.674Z,12.88
2022-10-11T19:56:10.867Z,13.68
2022-10-11T19:59:01.483Z,13.82
2022-10-11T20:01:53.325Z,15.80
2022-10-11T20:04:52.723Z,16.50
2022-10-11T20:07:42.808Z,17.13
2022-10-11T20:10:33.418Z,16.23
2022-10-11T20:13:23.538Z,14.90
2022-10-11T20:16:16.452Z,15.13
2022-10-11T20:19:06.360Z,15.07
2022-10-11T20:21:56.232Z,13.27
2022-10-11T20:24:46.213Z,15.35
2022-10-11T20:27:36.544Z,14.48
2022-10-11T20:30:26.786Z,14.02
2022-10-11T20:33:16.919Z,14.10
2022-10-11T20:36:12.583Z,14.13
2022-10-11T20:39:02.846Z,15.07
2022-10-11T20:41:52.862Z,14.30
2022-10-11T20:44:43.675Z,14.32
2022-10-11T20:47:34.303Z,14.13
2022-10-11T20:50:24.523Z,15.23
2022-10-11T20:53:16.413Z,14.35
2022-10-11T20:56:11.648Z,14.10
2022-10-11T20:59:01.571Z,16.88
2022-10-11T21:01:51.854Z,15.20
2022-10-11T21:04:41.922Z,15.43
2022-10-11T21:07:32.367Z,13.48
2022-10-11T21:10:22.566Z,14.35
2022-10-11T21:13:12.509Z,14.20
2022-10-11T21:16:15.400Z,13.70
2022-10-11T21:19:06.203Z,12.70
2022-10-11T21:21:56.117Z,13.18
2022-10-11T21:24:45.957Z,14.75
2022-10-11T21:27:36.193Z,12.55
2022-10-11T21:30:26.466Z,15.45
2022-10-11T21:33:16.509Z,14.20
2022-10-11T21:36:08.963Z,12.73
2022-10-11T21:38:59.384Z,13.32
2022-10-11T21:41:49.643Z,13.70
2022-10-11T21:44:42.929Z,13.15
2022-10-11T21:47:37.994Z,13.07
2022-10-11T21:50:28.937Z,12.95
2022-10-11T21:53:18.765Z,13.27
2022-10-11T21:56:09.222Z,14.75
2022-10-11T21:58:59.681Z,14.73
2022-10-11T22:01:50.165Z,14.90
2022-10-11T22:04:40.377Z,13.63
2022-10-11T22:07:30.192Z,13.75
2022-10-11T22:10:20.272Z,12.65
2022-10-11T22:13:10.134Z,13.80
2022-10-11T22:16:05.011Z,13.93
2022-10-11T22:18:55.305Z,14.50
2022-10-11T22:21:46.065Z,13.68
2022-10-11T22:24:36.405Z,14.05
2022-10-11T22:27:26.662Z,13.25
2022-10-11T22:30:16.969Z,13.73
2022-10-11T22:33:07.197Z,13.55
2022-10-11T22:35:59.624Z,14.00
2022-10-11T22:38:51.123Z,13.25
2022-10-11T22:41:41.180Z,13.77
2022-10-11T22:44:31.423Z,13.65
2022-10-11T22:47:21.425Z,13.80
2022-10-11T22:50:11.300Z,16.52
2022-10-11T22:53:01.369Z,15.15
2022-10-11T22:55:51.437Z,13.98
2022-10-11T22:58:41.689Z,13.73
2022-10-11T23:01:31.840Z,13.30
2022-10-11T23:04:22.058Z,13.70
2022-10-11T23:07:12.306Z,13.40
2022-10-11T23:10:02.313Z,13.38
2022-10-11T23:12:52.474Z,13.02
2022-10-11T23:15:43.104Z,12.18
2022-10-11T23:18:33.650Z,13.07
2022-10-11T23:21:25.061Z,12.77
2022-10-11T23:24:18.726Z,13.02
2022-10-11T23:27:14.512Z,13.32
2022-10-11T23:30:06.751Z,13.82
2022-10-11T23:33:00.771Z,13.32
2022-10-11T23:35:51.887Z,13.50
2022-10-11T23:38:42.434Z,13.60
2022-10-11T23:41:32.655Z,12.70
2022-10-11T23:44:23.004Z,13.60
2022-10-11T23:47:13.501Z,13.60
2022-10-11T23:50:07.877Z,13.98
2022-10-11T23:52:58.291Z,13.45
2022-10-11T23:55:48.699Z,13.73
2022-10-11T23:58:39.348Z,13.55
